createdAt,value
2018-05-07T00:02:25.254Z,99.90
2018-05-07T00:04:53.565Z,99.90
2018-05-07T00:07:21.081Z,99.90
2018-05-07T00:09:48.989Z,99.90
2018-05-07T00:12:16.888Z,99.90
2018-05-07T00:14:45.159Z,99.90
2018-05-07T00:17:12.651Z,99.90
2018-05-07T00:19:40.928Z,99.90
2018-05-07T00:22:08.863Z,99.90
2018-05-07T00:24:37.166Z,99.90
2018-05-07T00:29:33.891Z,99.90
2018-05-07T00:32:01.389Z,99.90
2018-05-07T00:34:28.887Z,99.90
2018-05-07T00:36:56.396Z,99.90
2018-05-07T00:39:23.895Z,99.90
2018-05-07T00:44:20.238Z,99.90
2018-05-07T00:46:48.495Z,99.20
2018-05-07T00:49:16.005Z,99.90
2018-05-07T00:51:43.500Z,99.90
2018-05-07T00:54:11.003Z,99.90
2018-05-07T00:56:38.502Z,99.90
2018-05-07T00:59:06.777Z,98.40
2018-05-07T01:01:35.022Z,97.20
2018-05-07T01:04:02.515Z,99.90
2018-05-07T01:06:30.772Z,97.70
2018-05-07T01:08:58.667Z,98.40
2018-05-07T01:11:26.176Z,99.90
2018-05-07T01:13:53.678Z,99.90
2018-05-07T01:16:21.963Z,98.00
2018-05-07T01:18:49.450Z,99.90
2018-05-07T01:21:16.966Z,99.90
2018-05-07T01:26:13.363Z,99.90
2018-05-07T01:28:40.857Z,99.90
2018-05-07T01:31:08.352Z,99.90
2018-05-07T01:33:35.859Z,99.90
2018-05-07T01:36:03.345Z,99.90
2018-05-07T01:38:31.619Z,99.40
2018-05-07T01:41:00.615Z,98.70
2018-05-07T01:43:28.897Z,99.10
2018-05-07T01:45:57.152Z,99.10
2018-05-07T01:48:24.643Z,99.90
2018-05-07T01:50:52.921Z,98.90
2018-05-07T01:55:49.285Z,99.90
2018-05-07T01:58:16.779Z,99.90
2018-05-07T02:00:45.044Z,99.70
2018-05-07T02:03:12.536Z,99.90
2018-05-07T02:05:40.036Z,99.90
2018-05-07T02:08:07.556Z,99.90
2018-05-07T02:10:35.806Z,99.90
2018-05-07T02:13:03.318Z,99.90
2018-05-07T02:17:59.653Z,99.90
2018-05-07T02:20:27.905Z,99.90
2018-05-07T02:22:55.784Z,99.90
2018-05-07T02:25:24.051Z,99.90
2018-05-07T02:27:51.536Z,99.90
2018-05-07T02:30:19.799Z,99.90
2018-05-07T02:32:47.684Z,99.90
2018-05-07T02:35:15.581Z,99.90
2018-05-07T02:37:43.070Z,99.90
2018-05-07T02:40:10.572Z,99.90
2018-05-07T02:42:38.068Z,99.90
2018-05-07T02:45:06.345Z,99.90
2018-05-07T02:47:33.863Z,99.90
2018-05-07T02:50:01.358Z,99.90
2018-05-07T02:52:28.873Z,99.90
2018-05-07T02:54:57.148Z,99.90
2018-05-07T02:57:25.432Z,99.90
2018-05-07T02:59:52.939Z,99.90
2018-05-07T03:02:20.431Z,99.90
2018-05-07T03:04:48.707Z,99.90
2018-05-07T03:07:16.976Z,99.90
2018-05-07T03:09:44.474Z,99.90
2018-05-07T03:12:12.088Z,99.90
2018-05-07T03:14:39.889Z,99.90
2018-05-07T03:19:36.221Z,99.90
2018-05-07T03:22:04.124Z,99.90
2018-05-07T03:24:31.614Z,99.90
2018-05-07T03:26:59.115Z,99.90
2018-05-07T03:29:28.106Z,99.90
2018-05-07T03:31:55.616Z,99.90
2018-05-07T03:34:23.119Z,99.90
2018-05-07T03:36:52.129Z,99.90
2018-05-07T03:39:19.656Z,99.90
2018-05-07T03:41:47.154Z,99.90
2018-05-07T03:44:15.429Z,99.90
2018-05-07T03:46:42.922Z,99.90
2018-05-07T03:51:40.030Z,99.90
2018-05-07T03:54:08.300Z,99.90
2018-05-07T03:56:36.926Z,99.90
2018-05-07T03:59:04.424Z,99.90
2018-05-07T04:01:31.930Z,99.90
2018-05-07T04:03:59.426Z,99.90
2018-05-07T04:06:26.928Z,99.90
2018-05-07T04:08:55.194Z,99.90
2018-05-07T04:11:23.475Z,99.90
2018-05-07T04:13:51.754Z,99.90
2018-05-07T04:16:31.626Z,99.90
2018-05-07T04:19:10.903Z,99.90
2018-05-07T04:21:38.402Z,99.90
2018-05-07T04:24:06.666Z,99.90
2018-05-07T04:26:34.935Z,99.90
2018-05-07T04:29:03.185Z,99.90
2018-05-07T04:31:30.711Z,99.90
2018-05-07T04:33:58.620Z,99.90
2018-05-07T04:36:26.125Z,99.90
2018-05-07T04:38:53.632Z,99.90
2018-05-07T04:41:21.128Z,99.90
2018-05-07T04:43:49.396Z,99.90
2018-05-07T04:46:17.648Z,99.90
2018-05-07T04:48:45.154Z,99.90
2018-05-07T04:51:13.440Z,99.90
2018-05-07T04:53:40.937Z,99.90
2018-05-07T04:56:08.448Z,99.90
2018-05-07T04:58:35.941Z,99.90
2018-05-07T05:01:04.208Z,99.90
2018-05-07T05:03:31.700Z,99.90
2018-05-07T05:05:59.188Z,99.90
2018-05-07T05:08:27.432Z,99.90
2018-05-07T05:10:54.922Z,99.90
2018-05-07T05:13:23.206Z,99.90
2018-05-07T05:15:50.699Z,99.90
2018-05-07T05:18:18.179Z,99.90
2018-05-07T05:20:45.702Z,99.90
2018-05-07T05:23:13.180Z,99.90
2018-05-07T05:25:41.083Z,99.90
2018-05-07T05:28:08.977Z,99.90
2018-05-07T05:30:36.485Z,99.90
2018-05-07T05:33:03.999Z,99.90
2018-05-07T05:35:31.880Z,99.90
2018-05-07T05:37:59.388Z,99.90
2018-05-07T05:40:28.389Z,99.90
2018-05-07T05:42:55.889Z,99.90
2018-05-07T05:45:24.544Z,99.90
2018-05-07T05:47:52.807Z,99.90
2018-05-07T05:50:20.387Z,99.90
2018-05-07T05:52:48.221Z,99.90
2018-05-07T05:55:15.729Z,99.90
2018-05-07T05:57:43.221Z,99.90
2018-05-07T06:00:10.734Z,99.90
2018-05-07T06:02:38.985Z,98.70
2018-05-07T06:05:07.248Z,97.70
2018-05-07T06:07:34.756Z,98.40
2018-05-07T06:10:02.256Z,98.00
2018-05-07T06:12:29.765Z,97.80
2018-05-07T06:14:57.431Z,97.60
2018-05-07T06:17:25.205Z,95.10
2018-05-07T06:19:53.074Z,94.70
2018-05-07T06:22:20.581Z,93.60
2018-05-07T06:24:48.132Z,92.70
2018-05-07T06:27:15.635Z,92.20
2018-05-07T06:29:43.159Z,90.80
2018-05-07T06:32:11.050Z,88.20
2018-05-07T06:34:38.962Z,90.60
2018-05-07T06:37:06.445Z,91.90
2018-05-07T06:39:33.958Z,90.70
2018-05-07T06:42:01.442Z,88.70
2018-05-07T06:44:28.949Z,87.30
2018-05-07T06:46:57.216Z,84.50
2018-05-07T06:49:25.508Z,81.60
2018-05-07T06:51:53.417Z,80.60
2018-05-07T06:54:20.908Z,84.80
2018-05-07T06:56:48.416Z,84.30
2018-05-07T06:59:15.904Z,85.30
2018-05-07T07:01:43.785Z,78.40
2018-05-07T07:04:11.290Z,81.00
2018-05-07T07:06:38.785Z,84.50
2018-05-07T07:09:06.288Z,80.60
2018-05-07T07:11:34.547Z,79.40
2018-05-07T07:14:02.046Z,82.40
2018-05-07T07:16:29.550Z,85.00
2018-05-07T07:18:57.071Z,90.90
2018-05-07T07:21:24.571Z,84.90
2018-05-07T07:23:52.072Z,86.10
2018-05-07T07:26:19.573Z,84.90
2018-05-07T07:28:47.062Z,84.50
2018-05-07T07:31:14.571Z,90.10
2018-05-07T07:33:42.088Z,87.20
2018-05-07T07:36:09.680Z,88.70
2018-05-07T07:38:37.171Z,84.30
2018-05-07T07:41:04.675Z,88.40
2018-05-07T07:43:32.938Z,85.70
2018-05-07T07:46:01.205Z,83.50
2018-05-07T07:48:28.712Z,83.20
2018-05-07T07:50:56.193Z,84.80
2018-05-07T07:53:23.706Z,79.20
2018-05-07T07:55:51.989Z,75.90
2018-05-07T07:58:19.503Z,76.60
2018-05-07T08:00:46.993Z,74.50
2018-05-07T08:03:15.242Z,72.30
2018-05-07T08:05:42.751Z,72.00
2018-05-07T08:08:10.239Z,68.10
2018-05-07T08:10:37.759Z,69.70
2018-05-07T08:13:05.252Z,69.20
2018-05-07T08:15:32.772Z,67.20
2018-05-07T08:18:00.258Z,68.20
2018-05-07T08:20:27.783Z,65.80
2018-05-07T08:22:56.056Z,64.30
2018-05-07T08:25:24.322Z,63.00
2018-05-07T08:27:52.598Z,63.10
2018-05-07T08:30:20.893Z,64.90
2018-05-07T08:32:48.763Z,61.00
2018-05-07T08:35:16.258Z,64.70
2018-05-07T08:37:43.770Z,61.00
2018-05-07T08:40:12.021Z,60.10
2018-05-07T08:42:39.914Z,58.30
2018-05-07T08:45:08.168Z,57.70
2018-05-07T08:47:35.687Z,58.00
2018-05-07T08:50:03.184Z,59.70
2018-05-07T08:52:30.675Z,58.70
2018-05-07T08:54:58.960Z,56.80
2018-05-07T08:57:26.452Z,59.30
2018-05-07T08:59:53.955Z,58.20
2018-05-07T09:02:22.219Z,55.80
2018-05-07T09:04:49.718Z,57.00
2018-05-07T09:07:17.209Z,56.50
2018-05-07T09:09:44.725Z,59.40
2018-05-07T09:12:12.223Z,58.70
2018-05-07T09:14:39.713Z,54.80
2018-05-07T09:17:08.724Z,54.60
2018-05-07T09:19:36.986Z,54.10
2018-05-07T09:22:04.500Z,54.10
2018-05-07T09:24:32.394Z,51.80
2018-05-07T09:26:59.902Z,55.70
2018-05-07T09:29:27.390Z,55.50
2018-05-07T09:31:54.902Z,57.10
2018-05-07T09:34:22.784Z,54.00
2018-05-07T09:36:50.660Z,49.10
2018-05-07T09:39:18.163Z,51.50
2018-05-07T09:41:45.652Z,50.80
2018-05-07T09:44:13.563Z,49.30
2018-05-07T09:46:41.056Z,50.70
2018-05-07T09:49:08.568Z,49.60
2018-05-07T09:51:36.054Z,53.10
2018-05-07T09:54:04.308Z,48.60
2018-05-07T09:56:31.815Z,50.50
2018-05-07T09:58:59.309Z,51.90
2018-05-07T10:01:26.813Z,51.50
2018-05-07T10:03:54.311Z,52.50
2018-05-07T10:06:22.590Z,50.30
2018-05-07T10:08:50.839Z,50.10
2018-05-07T10:11:18.352Z,52.40
2018-05-07T10:13:45.844Z,52.40
2018-05-07T10:16:13.358Z,51.70
2018-05-07T10:18:40.851Z,50.40
2018-05-07T10:21:08.340Z,50.90
2018-05-07T10:23:35.906Z,51.40
2018-05-07T10:26:03.375Z,51.20
2018-05-07T10:28:31.640Z,49.10
2018-05-07T10:30:59.896Z,49.80
2018-05-07T10:33:27.385Z,49.60
2018-05-07T10:35:55.274Z,49.70
2018-05-07T10:38:22.783Z,51.40
2018-05-07T10:40:50.279Z,52.00
2018-05-07T10:43:17.784Z,50.00
2018-05-07T10:45:45.305Z,50.90
2018-05-07T10:48:12.809Z,51.50
2018-05-07T10:50:40.323Z,50.10
2018-05-07T10:53:07.827Z,52.20
2018-05-07T10:55:35.338Z,52.20
2018-05-07T10:58:02.835Z,51.40
2018-05-07T11:00:31.176Z,51.20
2018-05-07T11:02:58.663Z,50.60
2018-05-07T11:05:26.157Z,49.50
2018-05-07T11:07:54.426Z,48.80
2018-05-07T11:10:21.913Z,50.20
2018-05-07T11:12:49.435Z,51.10
2018-05-07T11:15:16.946Z,49.60
2018-05-07T11:17:44.466Z,51.50
2018-05-07T11:20:11.960Z,50.80
2018-05-07T11:22:39.522Z,50.60
2018-05-07T11:25:07.026Z,48.70
2018-05-07T11:27:34.546Z,49.60
2018-05-07T11:30:02.039Z,48.20
2018-05-07T11:32:29.530Z,48.50
2018-05-07T11:34:57.821Z,48.90
2018-05-07T11:37:25.323Z,46.20
2018-05-07T11:39:52.827Z,46.50
2018-05-07T11:42:21.114Z,46.50
2018-05-07T11:44:48.622Z,48.10
2018-05-07T11:47:16.118Z,48.20
2018-05-07T11:49:44.386Z,46.50
2018-05-07T11:52:12.642Z,47.40
2018-05-07T11:54:40.154Z,50.60
2018-05-07T11:57:07.646Z,50.20
2018-05-07T11:59:35.146Z,48.60
2018-05-07T12:02:03.414Z,48.10
2018-05-07T12:04:32.407Z,47.80
2018-05-07T12:06:59.906Z,49.30
2018-05-07T12:09:27.398Z,45.10
2018-05-07T12:11:54.916Z,50.90
2018-05-07T12:14:22.395Z,48.20
2018-05-07T12:16:49.905Z,48.60
2018-05-07T12:19:18.172Z,48.50
2018-05-07T12:21:45.656Z,50.80
2018-05-07T12:24:13.555Z,48.20
2018-05-07T12:26:41.053Z,52.20
2018-05-07T12:29:08.655Z,48.30
2018-05-07T12:31:36.279Z,49.50
2018-05-07T12:34:04.447Z,47.40
2018-05-07T12:36:33.441Z,48.70
2018-05-07T12:39:01.358Z,49.90
2018-05-07T12:41:28.847Z,55.40
2018-05-07T12:43:56.345Z,52.20
2018-05-07T12:46:24.617Z,51.10
2018-05-07T12:48:52.866Z,50.50
2018-05-07T12:51:20.381Z,51.50
2018-05-07T12:53:47.887Z,50.00
2018-05-07T12:56:15.794Z,51.90
2018-05-07T12:58:43.920Z,54.30
2018-05-07T13:01:11.399Z,52.00
2018-05-07T13:03:38.906Z,52.30
2018-05-07T13:06:07.170Z,52.40
2018-05-07T13:08:34.683Z,50.30
2018-05-07T13:11:02.180Z,51.20
2018-05-07T13:13:29.704Z,52.40
2018-05-07T13:15:57.594Z,51.80
2018-05-07T13:18:25.858Z,51.20
2018-05-07T13:20:53.744Z,51.70
2018-05-07T13:23:22.129Z,52.00
2018-05-07T13:25:49.632Z,53.30
2018-05-07T13:28:17.160Z,56.20
2018-05-07T13:30:44.672Z,56.90
2018-05-07T13:33:12.165Z,55.10
2018-05-07T13:35:39.676Z,54.00
2018-05-07T13:38:07.172Z,56.00
2018-05-07T13:40:35.459Z,53.50
2018-05-07T13:43:02.946Z,54.40
2018-05-07T13:45:30.453Z,57.50
2018-05-07T13:47:58.724Z,53.40
2018-05-07T13:50:26.242Z,54.00
2018-05-07T13:52:53.742Z,53.60
2018-05-07T13:55:21.236Z,56.10
2018-05-07T13:57:48.765Z,55.10
2018-05-07T14:00:16.654Z,55.90
2018-05-07T14:02:44.233Z,55.30
2018-05-07T14:05:12.427Z,54.00
2018-05-07T14:07:39.926Z,55.60
2018-05-07T14:10:08.199Z,54.10
2018-05-07T14:12:36.114Z,53.90
2018-05-07T14:15:03.610Z,55.60
2018-05-07T14:17:32.616Z,54.30
2018-05-07T14:20:00.122Z,57.40
2018-05-07T14:22:27.605Z,55.20
2018-05-07T14:24:55.108Z,57.00
2018-05-07T14:27:23.375Z,54.00
2018-05-07T14:29:51.634Z,55.00
2018-05-07T14:32:19.152Z,57.40
2018-05-07T14:34:46.643Z,56.40
2018-05-07T14:37:14.542Z,55.60
2018-05-07T14:39:42.808Z,55.30
2018-05-07T14:42:10.706Z,54.40
2018-05-07T14:44:38.204Z,53.90
2018-05-07T14:47:05.712Z,55.80
2018-05-07T14:49:33.229Z,55.80
2018-05-07T14:52:00.732Z,53.70
2018-05-07T14:54:28.231Z,54.30
2018-05-07T14:56:56.151Z,53.20
2018-05-07T14:59:24.137Z,50.90
2018-05-07T15:01:51.638Z,53.90
2018-05-07T15:04:19.144Z,55.00
2018-05-07T15:06:47.410Z,52.30
2018-05-07T15:09:15.402Z,51.00
2018-05-07T15:11:43.318Z,54.40
2018-05-07T15:14:22.704Z,53.10
2018-05-07T15:16:50.613Z,52.50
2018-05-07T15:19:18.881Z,52.10
2018-05-07T15:21:46.792Z,52.60
2018-05-07T15:24:15.058Z,52.30
2018-05-07T15:26:42.660Z,56.00
2018-05-07T15:29:10.287Z,53.60
2018-05-07T15:31:38.514Z,50.90
2018-05-07T15:34:06.024Z,53.50
2018-05-07T15:36:34.326Z,52.50
2018-05-07T15:39:01.830Z,55.30
2018-05-07T15:41:29.341Z,53.40
2018-05-07T15:43:56.891Z,53.00
2018-05-07T15:46:24.461Z,53.20
2018-05-07T15:48:51.996Z,56.30
2018-05-07T15:51:20.271Z,55.20
2018-05-07T15:53:48.606Z,54.20
2018-05-07T15:56:16.044Z,59.50
2018-05-07T15:58:43.541Z,56.70
2018-05-07T16:01:11.461Z,53.40
2018-05-07T16:03:39.361Z,55.30
2018-05-07T16:06:06.928Z,58.10
2018-05-07T16:08:34.406Z,56.30
2018-05-07T16:11:01.920Z,55.30
2018-05-07T16:13:29.827Z,54.70
2018-05-07T16:15:57.338Z,59.50
2018-05-07T16:18:25.633Z,57.60
2018-05-07T16:20:53.154Z,59.70
2018-05-07T16:23:21.765Z,57.40
2018-05-07T16:25:48.958Z,59.90
2018-05-07T16:28:16.651Z,57.40
2018-05-07T16:30:44.011Z,57.10
2018-05-07T16:33:12.292Z,55.90
2018-05-07T16:35:40.200Z,56.00
2018-05-07T16:38:07.755Z,57.40
2018-05-07T16:40:35.647Z,55.60
2018-05-07T16:43:03.133Z,56.70
2018-05-07T16:45:31.423Z,56.30
2018-05-07T16:47:58.926Z,57.80
2018-05-07T16:50:26.831Z,54.10
2018-05-07T16:52:55.144Z,55.60
2018-05-07T16:55:23.058Z,56.00
2018-05-07T16:57:50.546Z,57.70
2018-05-07T17:00:18.831Z,55.50
2018-05-07T17:02:47.112Z,54.00
2018-05-07T17:05:14.636Z,57.10
2018-05-07T17:07:42.545Z,55.60
2018-05-07T17:10:10.437Z,55.50
2018-05-07T17:12:37.969Z,57.10
2018-05-07T17:15:05.478Z,56.50
2018-05-07T17:17:32.997Z,57.50
2018-05-07T17:20:00.903Z,55.20
2018-05-07T17:22:29.913Z,56.20
2018-05-07T17:24:57.515Z,58.90
2018-05-07T17:27:25.015Z,57.10
2018-05-07T17:29:53.359Z,56.00
2018-05-07T17:32:21.743Z,56.60
2018-05-07T17:34:49.314Z,59.50
2018-05-07T17:37:16.816Z,56.80
2018-05-07T17:39:45.080Z,57.10
2018-05-07T17:42:14.140Z,56.30
2018-05-07T17:44:53.667Z,57.60
2018-05-07T17:47:33.004Z,60.00
2018-05-07T17:50:00.503Z,59.80
2018-05-07T17:52:28.418Z,56.10
2018-05-07T17:54:55.933Z,58.70
2018-05-07T17:57:25.269Z,57.20
2018-05-07T17:59:53.191Z,57.50
2018-05-07T18:02:20.766Z,60.30
2018-05-07T18:04:49.084Z,57.90
2018-05-07T18:07:17.479Z,57.80
2018-05-07T18:09:45.004Z,59.40
2018-05-07T18:12:13.602Z,58.60
2018-05-07T18:14:41.892Z,59.00
2018-05-07T18:17:10.525Z,60.70
2018-05-07T18:19:38.469Z,60.10
2018-05-07T18:22:06.734Z,60.60
2018-05-07T18:27:03.117Z,71.70
2018-05-07T18:29:32.184Z,63.60
2018-05-07T18:31:59.782Z,74.40
2018-05-07T18:34:28.483Z,64.30
2018-05-07T18:36:57.504Z,64.20
2018-05-07T18:39:25.434Z,68.60
2018-05-07T18:41:53.999Z,65.10
2018-05-07T18:44:21.543Z,75.60
2018-05-07T18:46:49.490Z,74.80
2018-05-07T18:49:17.016Z,77.60
2018-05-07T18:51:45.316Z,69.90
2018-05-07T18:54:13.976Z,71.10
2018-05-07T18:59:11.230Z,74.10
2018-05-07T19:01:38.860Z,88.10
2018-05-07T19:04:08.003Z,85.80
2018-05-07T19:06:36.614Z,90.70
2018-05-07T19:09:04.162Z,91.00
2018-05-07T19:11:32.062Z,86.50
2018-05-07T19:13:59.696Z,95.80
2018-05-07T19:16:27.252Z,95.10
2018-05-07T19:18:55.630Z,92.70
2018-05-07T19:21:25.770Z,94.60
2018-05-07T19:23:53.343Z,99.90
2018-05-07T19:26:21.130Z,99.90
2018-05-07T19:28:50.251Z,99.90
2018-05-07T19:31:18.587Z,96.10
2018-05-07T19:33:47.296Z,96.20
2018-05-07T19:36:16.278Z,99.90
2018-05-07T19:38:43.841Z,99.90
2018-05-07T19:41:11.806Z,98.30
2018-05-07T19:43:39.732Z,98.80
2018-05-07T19:46:08.608Z,98.70
2018-05-07T19:51:05.897Z,99.90
2018-05-07T19:53:35.007Z,99.60
2018-05-07T19:56:02.947Z,99.90
2018-05-07T19:58:32.752Z,99.90
2018-05-07T20:01:01.965Z,99.90
2018-05-07T20:03:30.448Z,99.90
2018-05-07T20:05:59.581Z,99.90
2018-05-07T20:08:29.399Z,99.90
2018-05-07T20:10:57.651Z,99.90
2018-05-07T20:13:26.760Z,99.90
2018-05-07T20:15:54.313Z,99.90
2018-05-07T20:18:22.758Z,99.90
2018-05-07T20:20:51.357Z,99.90
2018-05-07T20:23:18.869Z,99.90
2018-05-07T20:25:46.827Z,99.90
2018-05-07T20:28:15.204Z,99.90
2018-05-07T20:30:43.851Z,99.90
2018-05-07T20:33:12.127Z,99.90
2018-05-07T20:35:40.072Z,99.90
2018-05-07T20:38:08.077Z,99.90
2018-05-07T20:43:05.980Z,99.70
2018-05-07T20:45:33.519Z,99.90
2018-05-07T20:48:02.705Z,99.20
2018-05-07T20:50:30.512Z,98.50
2018-05-07T20:55:27.709Z,99.20
2018-05-07T20:57:55.644Z,99.90
2018-05-07T21:00:23.149Z,99.90
2018-05-07T21:02:51.398Z,98.50
2018-05-07T21:05:18.937Z,99.90
2018-05-07T21:07:47.567Z,99.90
2018-05-07T21:10:15.101Z,99.90
2018-05-07T21:12:42.613Z,99.90
2018-05-07T21:15:10.145Z,99.90
2018-05-07T21:17:38.452Z,99.90
2018-05-07T21:20:06.428Z,99.90
2018-05-07T21:22:34.719Z,99.80
2018-05-07T21:25:02.607Z,99.40
2018-05-07T21:27:30.509Z,99.90
2018-05-07T21:29:58.825Z,99.90
2018-05-07T21:32:26.354Z,99.90
2018-05-07T21:34:54.617Z,99.90
2018-05-07T21:37:22.905Z,99.90
2018-05-07T21:39:51.187Z,99.90
2018-05-07T21:42:19.073Z,99.90
2018-05-07T21:44:46.582Z,99.90
2018-05-07T21:47:15.579Z,99.90
2018-05-07T21:49:43.275Z,99.90
2018-05-07T21:52:11.553Z,99.40
2018-05-07T21:54:39.060Z,99.90
2018-05-07T21:57:06.549Z,99.90
2018-05-07T21:59:34.823Z,99.40
2018-05-07T22:02:02.328Z,99.90
2018-05-07T22:04:29.843Z,99.90
2018-05-07T22:06:58.097Z,97.90
2018-05-07T22:09:25.591Z,99.90
2018-05-07T22:14:21.965Z,99.90
2018-05-07T22:16:50.223Z,99.60
2018-05-07T22:19:17.717Z,99.90
2018-05-07T22:21:45.241Z,99.90
2018-05-07T22:24:12.745Z,99.90
2018-05-07T22:26:40.232Z,99.90
2018-05-07T22:29:07.772Z,99.90
2018-05-07T22:31:35.677Z,99.90
2018-05-07T22:34:03.952Z,99.90
2018-05-07T22:36:31.452Z,99.90
2018-05-07T22:38:59.011Z,99.90
2018-05-07T22:41:27.218Z,99.90
2018-05-07T22:43:54.719Z,99.90
2018-05-07T22:46:22.225Z,99.90
2018-05-07T22:48:50.515Z,99.90
2018-05-07T22:51:18.007Z,99.90
2018-05-07T22:53:45.903Z,99.10
2018-05-07T22:56:13.414Z,99.90
2018-05-07T22:58:40.903Z,99.90
2018-05-07T23:01:08.415Z,99.90
2018-05-07T23:03:35.902Z,99.90
2018-05-07T23:06:04.176Z,97.00
2018-05-07T23:08:32.435Z,97.90
2018-05-07T23:10:59.959Z,99.90
2018-05-07T23:13:28.228Z,96.60
2018-05-07T23:15:55.727Z,99.90
2018-05-07T23:18:23.238Z,99.90
2018-05-07T23:20:50.733Z,99.90
2018-05-07T23:23:19.847Z,96.60
2018-05-07T23:28:16.201Z,99.90
2018-05-07T23:30:44.454Z,96.20
2018-05-07T23:33:12.064Z,99.90
2018-05-07T23:35:39.971Z,96.30
2018-05-07T23:38:07.476Z,98.60
2018-05-07T23:40:36.526Z,92.80
2018-05-07T23:43:04.017Z,97.60
2018-05-07T23:45:32.289Z,92.90
2018-05-07T23:48:00.996Z,91.50
2018-05-07T23:50:28.503Z,96.90
2018-05-07T23:52:55.984Z,96.30
2018-05-07T23:55:23.479Z,96.90
2018-05-07T23:57:50.973Z,95.70
